Terminal Aerodrome Forecast
Issued by NWS

Home | Current Version | Previous Version | Text Only | Print | Product List | Glossary On
Versions: 1 2 3 4 5 6 7 8 9 10 11 12 13 14 15 16 17 18 19 20
000
FTUS43 KEAX 071357 AAA
TAFMKC
TAF AMD
KMKC 071357Z 0714/0812 03008KT 4SM -SHRA BR BKN035
      TEMPO 0714/0716 2SM BR BKN022
     FM071600 02010KT P6SM BKN040
     FM080900 VRB03KT P6SM VCTS BKN040CB=

USA.gov is the U.S. government's official web portal to all federal, state and local government web resources and services.